INFORMACIÓN METAR y TAF
METAR FOR HESH
ADDS - METARS form results

(0704 UTC 20 January 2020)
Data provider http://aviationweather.gov/metar/data/
 
Forecast for: HESH (SHARM EL SHEIKHI, EG)
Text: TAF HESH 200500Z 2006/2112 34010KT CAVOK
Forecast period: 0600 UTC 20 January 2020 to 1200 UTC 21 January 2020
Forecast type: FROM: standard forecast or significant change
Winds: from the NNW (340 degrees) at 12 MPH (10 knots; 5.1 m/s)
Visibility: 6 or more miles 10+ km)
Ceiling: unknown
Clouds: missing
Weather: NSW  (no significant weather)

MAPA DE AEROPUERTO

INFORMACIÓN DE PISTA
Pista 04L Longitud 10108 ft Ancho 148 ft
Elevación 134 ft Umbral desplazado 0 ft Rumbo de pista 43
Pista 22R Longitud 10108 ft Ancho 148 ft
Elevación 119 ft Umbral desplazado 0 ft Rumbo de pista 223
Pista 04R Longitud 10108 ft Ancho 148 ft
Elevación 114 ft Umbral desplazado 0 ft Rumbo de pista 43
Pista 22L Longitud 10108 ft Ancho 148 ft
Elevación 117 ft Umbral desplazado 0 ft Rumbo de pista 223

FRECUANCIAS DEL AEROPUERTO
Tipo APP Nombre RADAR Frecuencia 121.1 MHZ
Tipo GND Nombre GND Frecuencia 121.9 MHZ
Tipo RDO Nombre RDO Frecuencia 317.5 MHZ
Tipo TWR Nombre TWR Frecuencia 118.9 MHZ

RADIO AYUDAS DEL AEROPUERTO
Tipo VOR-DME Nombre Sharm El Sheikh Frecuencia 114200 KHZ
Tipo NDB Nombre Sharm El Sheikh Frecuencia 335 KHZ